x

San Nicolas Island (72291) Weather Station

6:58pm - Wed 26th Apr 2017 All times are PDT. -7 hours from GMT.

  • Wind
    38mph, 48mph gusts
  • Air Temp 57°f
  • Sea Pressure 1011.5mb
  • San Nicolas Island
  • San Nicolas Island

More Historic Weather Station data

Upgrade to MSW Pro to gain access to the past 30 days of data for over 8000 Wavebouys and Weather Stations around the globe.

Join Pro

Comparision Forecast

View Surf forecast
   
Wed 04/26 6:58pm 38 48 mph 1011.5mb 57f
5:57pm 36 52 mph 1011.9mb -
4:57pm 33 48 mph 1012.2mb -
3:57pm 43 53 mph 1012.2mb 62f
2:57pm 38 53 mph 1012.5mb 63f
1:57pm 38 52 mph 1012.9mb 64f
12:57pm 39 48 mph 1013.2mb 65f
11:57am 35 46 mph 1013.9mb 66f
10:57am 30 38 mph 1013.9mb 62f
9:57am 27 36 mph 1014.6mb 60f
8:57am 27 37 mph 1013.9mb 58f
7:57am 31 37 mph 1013.2mb 57f
6:57am 27
mph
1012.5mb 56f
6:27am 24 35 mph 1012.5mb 54f
5:57am 28 37 mph 1012.2mb -
4:57am 31 39 mph 1012.2mb -
3:57am 31 38 mph 1012.2mb -
2:57am 32 43 mph 1012.2mb -
1:57am 28 38 mph 1012.9mb -
12:57am 30 44 mph 1013.2mb -
Tue 04/25 11:57pm 33 41 mph 1013.5mb -
10:57pm 33 45 mph 1014.2mb -
9:57pm 37 48 mph 1013.9mb -
8:57pm 28 41 mph 1013.2mb -
7:57pm 36 48 mph 1012.9mb -
6:57pm 39 53 mph 1012.5mb -
5:57pm 37 53 mph 1012.2mb -
4:57pm 33 48 mph 1012.2mb -
3:57pm 39 54 mph 1012.9mb 58f
2:57pm 40 55 mph 1013.5mb 59f
2:16pm 45 53 mph 1013.9mb 59f
1:57pm 37 51 mph 1014.2mb 59f
12:57pm 39 52 mph 1014.9mb 59f
11:57am 36 46 mph 1015.6mb 60f
10:57am 33 46 mph 1015.2mb 59f
9:57am 29 39 mph 1014.9mb 59f
8:57am 27 36 mph 1014.6mb 56f
7:57am 31 41 mph 1013.5mb 54f
6:57am 33 43 mph 1013.2mb 52f
6:29am 29 43 mph 1012.9mb 52f
5:57am 28 39 mph 1012.5mb -
4:57am 33 43 mph 1012.5mb -
3:57am 35 45 mph 1012.5mb -
2:57am 32 43 mph 1012.9mb -
1:57am 31 38 mph 1013.2mb -
12:57am 30 41 mph 1013.9mb -
Mon 04/24 11:57pm 32 45 mph 1013.2mb -
11:45pm 31 47 mph 1013.5mb -
10:57pm 33 43 mph 1013.5mb -
9:57pm 37 47 mph 1013.9mb -
8:57pm 35 47 mph 1013.2mb -
7:57pm 36 50 mph 1013.2mb -
6:57pm 35 48 mph 1012.9mb -
5:57pm 36 50 mph 1013.2mb -
4:57pm 39 52 mph 1013.5mb -
3:57pm 35 48 mph 1013.5mb 59f
2:57pm 33 43 mph 1014.6mb 59f
1:57pm 31 43 mph 1015.2mb 60f
12:57pm 31 45 mph 1015.6mb 61f
11:57am 29
mph
1015.9mb 60f
10:57am 32 43 mph 1015.6mb 57f
9:57am 27 36 mph 1014.9mb 56f
8:57am 28 41 mph 1014.2mb 56f
7:57am 28 37 mph 1013.9mb 55f
6:57am 25 37 mph 1013.2mb 53f
5:57am 27 37 mph 1012.2mb -
5:46am 28 35 mph 1012.2mb -
4:57am 27 36 mph 1012.2mb -
3:57am 31 39 mph 1011.9mb -
2:57am 29 38 mph 1011.5mb -
1:57am 31 40 mph 1012.2mb -
12:57am 33 41 mph 1012.2mb -
Sun 04/23 11:57pm 31 39 mph 1011.9mb -
10:57pm 32 47 mph 1011.9mb -
9:57pm 35 41 mph 1012.5mb -
8:57pm 33 45 mph 1011.9mb -
7:57pm 33 44 mph 1011.5mb -
6:57pm 33 44 mph 1011.5mb -
5:57pm 32 45 mph 1011.5mb -
4:57pm 39 52 mph 1013.5mb -
3:57pm 33 43 mph 1012.2mb -
2:57pm 32 45 mph 1012.5mb -
1:57pm 35 46 mph 1012.5mb -
1:19pm 35 45 mph 1012.9mb 62f
12:57pm 35 41 mph 1012.9mb 62f
11:57am 35 44 mph 1013.2mb 60f
10:57am 31 43 mph 1012.9mb -
9:57am 28 41 mph 1012.2mb -
8:57am 32 46 mph 1012.2mb -
7:57am 32 44 mph 1011.9mb -
6:57am 31 44 mph 1011.2mb -
5:57am 32 41 mph 1010.5mb -
4:57am 29 41 mph 1010.5mb -
3:57am 30 36 mph 1010.5mb -
2:57am 30 40 mph 1010.8mb -